createdAt,value
2018-05-18T00:00:14.746Z,7.50
2018-05-18T00:02:42.402Z,6.33
2018-05-18T00:05:09.947Z,6.87
2018-05-18T00:07:37.453Z,7.77
2018-05-18T00:10:05.163Z,6.60
2018-05-18T00:12:32.740Z,6.37
2018-05-18T00:15:00.304Z,7.60
2018-05-18T00:17:27.810Z,6.40
2018-05-18T00:19:55.346Z,6.30
2018-05-18T00:22:22.859Z,7.30
2018-05-18T00:24:50.383Z,6.13
2018-05-18T00:27:17.894Z,6.57
2018-05-18T00:29:45.428Z,6.63
2018-05-18T00:32:12.930Z,7.10
2018-05-18T00:34:40.502Z,6.37
2018-05-18T00:37:08.038Z,7.13
2018-05-18T00:39:35.579Z,6.93
2018-05-18T00:42:03.099Z,8.03
2018-05-18T00:44:30.631Z,6.00
2018-05-18T00:46:58.419Z,6.80
2018-05-18T00:49:26.035Z,6.33
2018-05-18T00:51:53.649Z,6.37
2018-05-18T00:54:21.178Z,6.43
2018-05-18T00:56:48.688Z,6.53
2018-05-18T00:59:16.236Z,6.60
2018-05-18T01:01:43.803Z,6.60
2018-05-18T01:04:11.349Z,7.10
2018-05-18T01:06:39.136Z,6.70
2018-05-18T01:09:06.659Z,6.53
2018-05-18T01:11:34.183Z,6.50
2018-05-18T01:14:01.721Z,6.67
2018-05-18T01:16:29.286Z,6.53
2018-05-18T01:18:56.811Z,6.10
2018-05-18T01:21:24.356Z,6.00
2018-05-18T01:23:51.863Z,5.87
2018-05-18T01:26:19.443Z,6.00
2018-05-18T01:28:47.038Z,6.70
2018-05-18T01:31:14.594Z,6.13
2018-05-18T01:33:42.132Z,6.40
2018-05-18T01:36:09.652Z,6.20
2018-05-18T01:38:37.156Z,6.13
2018-05-18T01:41:04.675Z,6.10
2018-05-18T01:43:32.220Z,6.13
2018-05-18T01:45:59.747Z,5.97
2018-05-18T01:48:27.287Z,6.23
2018-05-18T01:50:54.830Z,6.57
2018-05-18T01:53:22.331Z,6.27
2018-05-18T01:55:49.885Z,6.13
2018-05-18T01:58:17.410Z,6.40
2018-05-18T02:00:44.956Z,6.67
2018-05-18T02:03:12.463Z,6.47
2018-05-18T02:05:39.998Z,5.93
2018-05-18T02:08:07.510Z,6.90
2018-05-18T02:10:35.090Z,7.27
2018-05-18T02:13:02.638Z,7.23
2018-05-18T02:15:30.197Z,6.70
2018-05-18T02:17:57.692Z,6.07
2018-05-18T02:20:25.207Z,6.70
2018-05-18T02:22:52.716Z,6.20
2018-05-18T02:25:20.314Z,7.63
2018-05-18T02:27:47.858Z,6.50
2018-05-18T02:30:15.406Z,7.87
2018-05-18T02:32:42.994Z,8.20
2018-05-18T02:35:10.539Z,7.47
2018-05-18T02:37:38.087Z,7.40
2018-05-18T02:40:05.670Z,7.33
2018-05-18T02:42:33.200Z,7.90
2018-05-18T02:45:00.775Z,7.83
2018-05-18T02:47:28.602Z,6.57
2018-05-18T02:49:56.102Z,6.80
2018-05-18T02:52:23.712Z,7.00
2018-05-18T02:54:51.206Z,7.13
2018-05-18T02:57:19.691Z,7.23
2018-05-18T02:59:47.234Z,7.53
2018-05-18T03:02:14.730Z,6.60
2018-05-18T03:04:42.250Z,7.10
2018-05-18T03:07:09.779Z,7.33
2018-05-18T03:09:37.312Z,6.97
2018-05-18T03:12:04.876Z,6.37
2018-05-18T03:14:32.434Z,6.17
2018-05-18T03:16:59.959Z,6.30
2018-05-18T03:19:27.535Z,6.57
2018-05-18T03:21:55.090Z,6.20
2018-05-18T03:24:22.670Z,6.37
2018-05-18T03:26:50.227Z,6.00
2018-05-18T03:29:17.747Z,5.73
2018-05-18T03:31:45.262Z,6.43
2018-05-18T03:34:12.756Z,5.70
2018-05-18T03:36:40.285Z,5.30
2018-05-18T03:39:07.806Z,5.70
2018-05-18T03:41:35.398Z,6.00
2018-05-18T03:44:02.969Z,5.87
2018-05-18T03:46:30.506Z,5.57
2018-05-18T03:48:58.052Z,5.17
2018-05-18T03:51:25.602Z,4.80
2018-05-18T04:37:33.706Z,6.30
2018-05-18T04:40:01.198Z,5.50
2018-05-18T04:42:28.707Z,5.97
2018-05-18T04:44:56.186Z,5.80
2018-05-18T04:47:23.684Z,6.10
2018-05-18T04:49:51.141Z,6.20
2018-05-18T04:52:18.644Z,6.00
2018-05-18T04:54:46.127Z,5.73
2018-05-18T04:57:13.590Z,6.00
2018-05-18T04:59:41.074Z,5.37
2018-05-18T05:02:08.538Z,5.77
2018-05-18T05:04:36.018Z,6.17
2018-05-18T05:07:03.490Z,5.30
2018-05-18T05:09:30.973Z,5.27
2018-05-18T05:11:58.464Z,4.53
2018-05-18T05:14:25.963Z,5.50
2018-05-18T05:16:53.442Z,5.47
2018-05-18T05:19:20.949Z,6.33
2018-05-18T05:21:48.409Z,5.50
2018-05-18T05:24:15.907Z,6.57
2018-05-18T05:26:43.398Z,6.10
2018-05-18T05:29:10.886Z,5.13
2018-05-18T05:31:38.341Z,6.30
2018-05-18T05:34:05.834Z,5.67
2018-05-18T05:36:33.422Z,5.43
2018-05-18T05:39:00.843Z,5.77
2018-05-18T05:41:28.303Z,7.07
2018-05-18T05:43:55.785Z,6.10
2018-05-18T05:46:23.245Z,4.80
2018-05-18T05:48:50.734Z,5.87
2018-05-18T05:51:18.198Z,5.90
2018-05-18T05:53:45.685Z,5.57
2018-05-18T05:56:13.174Z,5.90
2018-05-18T05:58:40.674Z,6.63
2018-05-18T06:01:08.143Z,6.40
2018-05-18T06:03:35.630Z,6.10
2018-05-18T06:06:03.170Z,5.80
2018-05-18T06:08:33.412Z,5.87
2018-05-18T06:11:00.886Z,6.20
2018-05-18T06:22:06.760Z,6.10
2018-05-18T06:24:34.994Z,6.40
2018-05-18T06:27:02.480Z,6.80
2018-05-18T06:29:29.962Z,8.07
2018-05-18T06:31:57.430Z,8.50
2018-05-18T06:34:24.933Z,8.20
2018-05-18T06:36:52.403Z,10.00
2018-05-18T06:39:19.893Z,10.87
2018-05-18T06:41:47.362Z,10.13
2018-05-18T06:44:14.852Z,9.93
2018-05-18T06:46:42.346Z,8.50
2018-05-18T06:49:09.847Z,14.93
2018-05-18T06:51:37.670Z,17.27
2018-05-18T06:54:05.146Z,16.13
2018-05-18T06:56:32.638Z,22.70
2018-05-18T06:59:00.110Z,22.73
2018-05-18T07:01:27.606Z,19.30
2018-05-18T07:03:55.091Z,17.13
2018-05-18T07:06:22.588Z,18.37
2018-05-18T07:08:50.059Z,19.53
2018-05-18T07:11:17.577Z,19.53
2018-05-18T07:13:45.052Z,17.67
2018-05-18T07:16:12.546Z,22.17
2018-05-18T07:18:40.027Z,18.97
2018-05-18T07:21:07.517Z,18.87
2018-05-18T07:23:35.026Z,19.40
2018-05-18T07:26:02.527Z,22.40
2018-05-18T07:28:29.999Z,22.20
2018-05-18T07:30:57.507Z,18.57
2018-05-18T07:33:24.994Z,20.60
2018-05-18T07:35:52.503Z,20.20
2018-05-18T07:38:19.979Z,21.03
2018-05-18T07:40:47.479Z,19.90
2018-05-18T07:43:14.967Z,21.77
2018-05-18T07:45:43.399Z,24.23
2018-05-18T07:48:10.871Z,28.47
2018-05-18T07:50:38.474Z,25.93
2018-05-18T07:53:05.940Z,25.97
2018-05-18T07:55:33.444Z,23.23
2018-05-18T07:58:00.923Z,18.97
2018-05-18T08:00:28.414Z,19.20
2018-05-18T08:02:55.905Z,20.00
2018-05-18T08:05:23.393Z,22.80
2018-05-18T08:07:50.913Z,22.80
2018-05-18T08:10:18.402Z,22.03
2018-05-18T08:12:45.892Z,23.37
2018-05-18T08:15:13.449Z,22.63
2018-05-18T08:17:40.886Z,21.57
2018-05-18T08:20:08.366Z,23.50
2018-05-18T08:22:35.876Z,21.60
2018-05-18T08:25:03.349Z,20.90
2018-05-18T08:27:31.874Z,18.23
2018-05-18T08:29:59.341Z,18.93
2018-05-18T08:32:26.853Z,14.80
2018-05-18T08:34:54.557Z,15.13
2018-05-18T08:37:22.118Z,17.80
2018-05-18T08:39:49.594Z,16.40
2018-05-18T08:42:17.082Z,15.93
2018-05-18T08:44:44.563Z,13.70
2018-05-18T08:47:12.132Z,15.27
2018-05-18T08:49:39.606Z,16.43
2018-05-18T08:52:07.106Z,14.23
2018-05-18T08:54:34.581Z,13.40
2018-05-18T08:57:02.085Z,12.47
2018-05-18T08:59:29.549Z,12.73
2018-05-18T09:01:57.054Z,13.77
2018-05-18T09:04:24.573Z,14.47
2018-05-18T09:06:52.066Z,14.30
2018-05-18T09:09:19.558Z,10.40
2018-05-18T09:11:47.058Z,10.77
2018-05-18T09:14:14.534Z,11.80
2018-05-18T09:16:42.010Z,12.70
2018-05-18T09:19:09.508Z,12.10
2018-05-18T09:21:36.986Z,13.07
2018-05-18T09:24:04.478Z,13.77
2018-05-18T09:26:32.035Z,15.93
2018-05-18T09:28:59.475Z,13.57
2018-05-18T09:31:26.947Z,12.10
2018-05-18T09:33:54.469Z,11.73
2018-05-18T09:36:22.010Z,13.13
2018-05-18T09:38:49.550Z,12.20
2018-05-18T09:41:17.036Z,8.03
2018-05-18T09:43:44.546Z,11.90
2018-05-18T09:46:12.034Z,12.83
2018-05-18T09:48:39.538Z,9.90
2018-05-18T09:51:07.012Z,8.93
2018-05-18T09:53:34.514Z,9.67
2018-05-18T09:56:01.985Z,10.17
2018-05-18T09:58:29.494Z,12.53
2018-05-18T10:00:56.968Z,11.40
2018-05-18T10:03:24.462Z,12.73
2018-05-18T10:05:51.938Z,10.93
2018-05-18T10:08:19.427Z,11.60
2018-05-18T10:13:21.037Z,11.07
2018-05-18T10:15:48.597Z,11.87
2018-05-18T10:18:16.020Z,10.57
2018-05-18T10:20:43.495Z,9.00
2018-05-18T10:23:10.993Z,9.63
2018-05-18T10:25:38.473Z,9.90
2018-05-18T10:28:05.961Z,7.47
2018-05-18T10:30:33.431Z,7.03
2018-05-18T10:33:00.921Z,6.73
2018-05-18T10:35:28.386Z,6.20
2018-05-18T10:37:55.847Z,7.20
2018-05-18T10:40:23.342Z,5.60
2018-05-18T10:42:50.883Z,6.30
2018-05-18T10:45:18.376Z,6.60
2018-05-18T10:47:45.858Z,5.87
2018-05-18T10:50:13.350Z,5.73
2018-05-18T10:52:40.839Z,5.57
2018-05-18T10:55:08.341Z,6.37
2018-05-18T10:57:35.818Z,5.70
2018-05-18T11:00:03.334Z,5.40
2018-05-18T11:02:30.798Z,6.97
2018-05-18T11:04:58.291Z,5.83
2018-05-18T11:07:25.754Z,6.33
2018-05-18T11:09:53.237Z,6.73
2018-05-18T11:12:20.709Z,9.70
2018-05-18T11:14:48.203Z,6.90
2018-05-18T11:17:15.682Z,7.17
2018-05-18T11:19:43.166Z,6.57
2018-05-18T11:22:10.637Z,7.00
2018-05-18T11:24:38.133Z,6.60
2018-05-18T11:27:05.611Z,6.80
2018-05-18T11:29:33.110Z,8.00
2018-05-18T11:32:00.585Z,6.23
2018-05-18T11:34:28.073Z,6.37
2018-05-18T11:36:55.549Z,6.50
2018-05-18T11:39:23.043Z,6.57
2018-05-18T11:41:50.515Z,6.00
2018-05-18T11:44:18.007Z,6.87
2018-05-18T11:46:45.487Z,6.17
2018-05-18T11:49:12.983Z,7.20
2018-05-18T11:51:40.447Z,6.87
2018-05-18T11:54:07.953Z,5.70
2018-05-18T11:56:35.422Z,6.17
2018-05-18T11:59:02.894Z,5.23
2018-05-18T12:01:30.387Z,6.83
2018-05-18T12:03:57.855Z,6.77
2018-05-18T12:06:26.325Z,6.00
2018-05-18T12:08:53.797Z,6.20
2018-05-18T12:11:21.285Z,6.67
2018-05-18T12:13:48.754Z,7.03
2018-05-18T12:16:16.247Z,6.40
2018-05-18T12:18:43.717Z,6.80
2018-05-18T12:21:11.224Z,6.60
2018-05-18T12:23:38.698Z,5.90
2018-05-18T12:26:06.332Z,5.60
2018-05-18T12:28:33.811Z,5.93
2018-05-18T12:31:01.343Z,6.10
2018-05-18T12:33:28.807Z,5.93
2018-05-18T12:35:56.295Z,6.50
2018-05-18T12:38:23.777Z,5.60
2018-05-18T12:40:52.290Z,5.67
2018-05-18T12:43:19.755Z,5.80
2018-05-18T12:45:47.248Z,6.33
2018-05-18T12:48:14.721Z,5.60
2018-05-18T12:50:42.219Z,6.17
2018-05-18T12:53:09.686Z,5.23
2018-05-18T12:55:37.187Z,5.80
2018-05-18T12:58:04.654Z,5.10
2018-05-18T13:00:32.152Z,5.77
2018-05-18T13:02:59.702Z,5.63
2018-05-18T13:05:27.191Z,5.23
2018-05-18T13:07:54.662Z,5.90
2018-05-18T13:10:22.174Z,6.10
2018-05-18T13:12:49.654Z,5.37
2018-05-18T13:15:17.121Z,6.17
2018-05-18T13:17:44.614Z,5.57
2018-05-18T13:20:12.871Z,6.33
2018-05-18T13:22:40.366Z,6.07
2018-05-18T13:25:07.835Z,5.83
2018-05-18T13:27:35.325Z,5.90
2018-05-18T13:30:02.800Z,6.30
2018-05-18T13:32:30.288Z,6.00
2018-05-18T13:34:57.757Z,6.10
2018-05-18T13:37:25.242Z,5.73
2018-05-18T13:39:52.715Z,5.83
2018-05-18T13:42:20.209Z,6.17
2018-05-18T13:44:47.785Z,5.90
2018-05-18T13:47:15.200Z,6.13
2018-05-18T13:49:42.673Z,6.60
2018-05-18T13:52:10.165Z,6.47
2018-05-18T13:54:37.671Z,7.27
2018-05-18T13:57:05.210Z,5.90
2018-05-18T13:59:32.650Z,6.60
2018-05-18T14:02:00.197Z,7.03
2018-05-18T14:04:27.666Z,6.10
2018-05-18T14:06:55.158Z,5.83
2018-05-18T14:09:22.624Z,6.60
2018-05-18T14:11:50.116Z,6.40
2018-05-18T14:14:17.594Z,6.20
2018-05-18T14:16:45.102Z,5.67
2018-05-18T14:19:12.578Z,6.03
2018-05-18T14:21:40.074Z,7.00
2018-05-18T14:24:07.558Z,7.00
2018-05-18T14:26:35.049Z,6.43
2018-05-18T14:29:02.514Z,6.77
2018-05-18T14:31:30.013Z,6.30
2018-05-18T14:33:57.484Z,6.60
2018-05-18T14:36:24.945Z,6.10
2018-05-18T14:38:52.450Z,7.43
2018-05-18T14:41:19.927Z,6.77
2018-05-18T14:43:47.435Z,7.13
2018-05-18T14:46:14.916Z,7.43
2018-05-18T14:48:42.418Z,6.23
2018-05-18T14:51:09.933Z,7.30
2018-05-18T14:53:37.398Z,7.23
2018-05-18T14:56:04.871Z,6.97
2018-05-18T14:58:32.460Z,6.97
2018-05-18T15:00:59.878Z,6.80
2018-05-18T15:03:27.365Z,7.90
2018-05-18T15:05:54.833Z,7.13
2018-05-18T15:08:22.317Z,7.33
2018-05-18T15:10:49.787Z,6.40
2018-05-18T15:13:17.277Z,7.60
2018-05-18T15:15:44.750Z,6.80
2018-05-18T15:18:12.233Z,7.87
2018-05-18T15:20:39.710Z,6.83
2018-05-18T15:23:07.227Z,8.40
2018-05-18T15:25:34.714Z,7.93
2018-05-18T15:28:02.207Z,7.50
2018-05-18T15:30:29.681Z,6.73
2018-05-18T15:32:57.165Z,7.90
2018-05-18T15:35:24.630Z,7.70
2018-05-18T15:37:52.122Z,9.03
2018-05-18T15:40:19.607Z,8.37
2018-05-18T15:42:47.110Z,7.10
2018-05-18T15:45:14.584Z,7.97
2018-05-18T15:47:42.074Z,7.87
2018-05-18T15:50:09.547Z,7.37
2018-05-18T15:52:37.055Z,6.77
2018-05-18T15:55:04.529Z,6.50
2018-05-18T15:57:32.078Z,7.40
2018-05-18T15:59:59.508Z,6.83
2018-05-18T16:02:26.978Z,7.03
2018-05-18T16:04:54.462Z,7.00
2018-05-18T16:07:21.949Z,7.27
2018-05-18T16:09:49.454Z,7.23
2018-05-18T16:12:16.929Z,7.87
2018-05-18T16:14:44.456Z,7.63
2018-05-18T16:17:11.981Z,7.20
2018-05-18T16:19:39.470Z,7.17
2018-05-18T16:22:06.948Z,7.93
2018-05-18T16:24:34.447Z,7.50
2018-05-18T16:27:01.930Z,7.67
2018-05-18T16:29:29.425Z,6.90
2018-05-18T16:31:56.899Z,7.33
2018-05-18T16:34:24.392Z,7.20
2018-05-18T16:36:51.870Z,7.63
2018-05-18T16:39:19.359Z,6.87
2018-05-18T16:41:46.830Z,6.53
2018-05-18T16:44:14.325Z,7.40
2018-05-18T16:46:41.794Z,6.57
2018-05-18T16:49:09.295Z,6.70
2018-05-18T16:51:36.763Z,6.50
2018-05-18T16:54:04.250Z,5.97
2018-05-18T16:56:31.730Z,5.93
2018-05-18T16:58:59.222Z,6.37
2018-05-18T17:01:27.040Z,7.10
2018-05-18T17:03:54.528Z,6.40
2018-05-18T17:06:21.996Z,5.93
2018-05-18T17:08:49.480Z,7.00
2018-05-18T17:11:16.949Z,7.40
2018-05-18T17:13:44.438Z,6.53
2018-05-18T17:16:11.918Z,6.80
2018-05-18T17:18:39.386Z,6.87
2018-05-18T17:21:06.870Z,6.53
2018-05-18T17:23:34.381Z,6.40
2018-05-18T17:26:01.863Z,6.30
2018-05-18T17:28:29.335Z,6.53
2018-05-18T17:30:56.834Z,6.80
2018-05-18T17:33:24.319Z,6.10
2018-05-18T17:35:51.827Z,6.37
2018-05-18T17:38:19.298Z,6.87
2018-05-18T17:40:46.810Z,6.40
2018-05-18T17:43:14.286Z,6.67
2018-05-18T17:45:41.783Z,6.00
2018-05-18T17:48:09.262Z,6.23
2018-05-18T17:50:36.759Z,6.63
2018-05-18T17:53:04.246Z,6.67
2018-05-18T17:55:31.729Z,6.80
2018-05-18T17:57:59.194Z,6.17
2018-05-18T18:00:26.687Z,6.10
2018-05-18T18:02:54.157Z,5.87
2018-05-18T18:05:21.669Z,6.10
2018-05-18T18:07:49.199Z,5.63
2018-05-18T18:10:16.701Z,5.30
2018-05-18T18:12:44.181Z,5.40
2018-05-18T18:15:11.662Z,6.50
2018-05-18T18:17:39.134Z,6.00
2018-05-18T18:20:07.488Z,5.90
2018-05-18T18:22:34.970Z,5.30
2018-05-18T18:25:02.480Z,5.60
2018-05-18T18:27:29.941Z,5.57
2018-05-18T18:29:57.421Z,5.60
2018-05-18T18:32:24.890Z,5.90
2018-05-18T18:34:52.383Z,5.83
2018-05-18T18:37:19.871Z,5.40
2018-05-18T18:39:47.337Z,6.30
2018-05-18T18:42:14.817Z,5.40
2018-05-18T18:44:42.290Z,5.97
2018-05-18T18:47:09.784Z,5.80
2018-05-18T18:49:37.256Z,5.33
2018-05-18T18:52:04.840Z,5.03
2018-05-18T18:54:32.238Z,6.23
2018-05-18T18:57:00.015Z,5.33
2018-05-18T18:59:27.498Z,6.03
2018-05-18T19:01:54.985Z,5.80
2018-05-18T19:04:22.511Z,5.40
2018-05-18T19:06:50.002Z,6.10
2018-05-18T19:09:17.478Z,5.70
2018-05-18T19:11:44.957Z,5.97
2018-05-18T19:14:12.434Z,5.90
2018-05-18T19:16:39.922Z,5.60
2018-05-18T19:19:07.395Z,6.13
2018-05-18T19:21:34.885Z,6.07
2018-05-18T19:24:02.366Z,6.40
2018-05-18T19:26:29.854Z,5.87
2018-05-18T19:28:57.329Z,6.37
2018-05-18T19:31:24.860Z,6.07
2018-05-18T19:33:52.344Z,5.93
2018-05-18T19:36:19.839Z,5.57
2018-05-18T19:38:47.570Z,5.80
2018-05-18T19:41:15.088Z,6.47
2018-05-18T19:43:42.619Z,6.13
2018-05-18T19:46:10.058Z,6.30
2018-05-18T19:48:37.533Z,6.37
2018-05-18T19:51:05.030Z,5.93
2018-05-18T19:53:32.514Z,6.10
2018-05-18T19:56:00.006Z,5.63
2018-05-18T19:58:27.486Z,6.37
2018-05-18T20:00:54.953Z,6.10
2018-05-18T20:03:22.434Z,5.87
2018-05-18T20:05:50.632Z,6.40
2018-05-18T20:08:18.128Z,7.20
2018-05-18T20:10:45.601Z,6.47
2018-05-18T20:13:13.134Z,7.40
2018-05-18T20:15:40.840Z,6.13
2018-05-18T20:18:08.326Z,6.10
2018-05-18T20:20:35.794Z,6.70
2018-05-18T20:23:03.281Z,6.67
2018-05-18T20:25:30.753Z,6.30
2018-05-18T20:27:58.244Z,6.40
2018-05-18T20:30:25.721Z,6.47
2018-05-18T20:32:53.211Z,6.20
2018-05-18T20:35:20.692Z,6.63
2018-05-18T20:37:48.182Z,5.97
2018-05-18T20:40:15.646Z,7.47
2018-05-18T20:42:43.139Z,6.97
2018-05-18T20:45:10.639Z,6.67
2018-05-18T20:47:38.106Z,7.10
2018-05-18T20:50:05.574Z,6.77
2018-05-18T20:52:33.062Z,6.57
2018-05-18T20:55:00.528Z,7.07
2018-05-18T20:57:28.016Z,6.47
2018-05-18T20:59:55.486Z,6.53
2018-05-18T21:02:22.986Z,6.37
2018-05-18T21:04:50.455Z,5.63
2018-05-18T21:07:17.944Z,6.20
2018-05-18T21:09:45.439Z,6.00
2018-05-18T21:12:12.905Z,5.80
2018-05-18T21:14:40.391Z,6.60
2018-05-18T21:17:07.882Z,6.43
2018-05-18T21:19:35.370Z,6.70
2018-05-18T21:22:02.845Z,6.10
2018-05-18T21:24:30.336Z,6.60
2018-05-18T21:26:57.800Z,6.70
2018-05-18T21:29:25.337Z,6.37
2018-05-18T21:31:52.809Z,6.20
2018-05-18T21:34:20.297Z,6.50
2018-05-18T21:36:47.759Z,6.17
2018-05-18T21:39:15.259Z,7.43
2018-05-18T21:41:42.735Z,7.93
2018-05-18T21:44:10.206Z,7.57
2018-05-18T21:46:37.698Z,8.20
2018-05-18T21:49:05.170Z,7.43
2018-05-18T21:51:32.658Z,8.20
2018-05-18T21:54:00.485Z,7.60
2018-05-18T21:56:27.971Z,8.23
2018-05-18T21:58:55.438Z,8.43
2018-05-18T22:01:22.933Z,8.43
2018-05-18T22:03:50.405Z,7.40
2018-05-18T22:06:17.890Z,6.80
2018-05-18T22:08:45.371Z,6.97
2018-05-18T22:11:12.857Z,7.27
2018-05-18T22:13:40.322Z,6.50
2018-05-18T22:16:07.847Z,6.40
2018-05-18T22:18:35.355Z,7.73
2018-05-18T22:21:02.841Z,7.00
2018-05-18T22:23:30.310Z,6.70
2018-05-18T22:25:57.809Z,7.40
2018-05-18T22:28:25.284Z,7.70
2018-05-18T22:30:52.750Z,7.13
2018-05-18T22:33:20.236Z,7.00
2018-05-18T22:35:47.710Z,7.10
